createdAt,value
2023-02-06T00:01:51.249Z,90.66
2023-02-06T00:04:19.245Z,90.22
2023-02-06T00:06:46.788Z,89.63
2023-02-06T00:09:14.913Z,89.39
2023-02-06T00:11:42.321Z,89.59
2023-02-06T00:14:11.605Z,90.02
2023-02-06T00:16:39.083Z,90.56
2023-02-06T00:19:06.777Z,90.88
2023-02-06T00:21:46.327Z,90.72
2023-02-06T00:24:13.824Z,90.45
2023-02-06T00:26:41.143Z,90.30
2023-02-06T00:29:08.816Z,90.19
2023-02-06T00:31:38.498Z,89.75
2023-02-06T00:34:06.686Z,90.33
2023-02-06T00:36:34.136Z,90.42
2023-02-06T00:39:01.674Z,90.37
2023-02-06T00:41:29.070Z,90.08
2023-02-06T00:43:56.586Z,89.82
2023-02-06T00:46:24.100Z,89.70
2023-02-06T00:48:51.328Z,89.61
2023-02-06T00:51:18.335Z,89.54
2023-02-06T00:53:45.784Z,89.12
2023-02-06T00:56:13.230Z,88.73
2023-02-06T00:58:40.769Z,88.43
2023-02-06T01:01:08.353Z,87.62
2023-02-06T01:03:35.742Z,86.50
2023-02-06T01:06:04.202Z,86.03
2023-02-06T01:08:31.601Z,86.02
2023-02-06T01:10:59.052Z,85.43
2023-02-06T01:13:26.790Z,85.77
2023-02-06T01:15:54.057Z,86.54
2023-02-06T01:18:21.385Z,85.99
2023-02-06T01:20:48.913Z,85.02
2023-02-06T01:23:18.370Z,84.21
2023-02-06T01:25:45.828Z,84.12
2023-02-06T01:28:12.845Z,83.84
2023-02-06T01:30:41.322Z,84.14
2023-02-06T01:33:08.781Z,84.32
2023-02-06T01:35:37.406Z,84.98
2023-02-06T01:38:04.676Z,85.16
2023-02-06T01:40:32.114Z,85.39
2023-02-06T01:42:59.452Z,85.74
2023-02-06T01:45:26.964Z,86.21
2023-02-06T01:48:05.882Z,87.33
2023-02-06T01:50:34.765Z,89.08
2023-02-06T01:53:03.809Z,89.97
2023-02-06T01:55:31.199Z,90.74
2023-02-06T01:58:01.398Z,90.72
2023-02-06T02:00:28.705Z,91.00
2023-02-06T02:02:56.108Z,91.12
2023-02-06T02:05:23.729Z,90.26
2023-02-06T02:08:01.441Z,89.91
2023-02-06T02:10:32.496Z,90.24
2023-02-06T02:13:05.862Z,90.76
2023-02-06T02:15:56.085Z,91.07
2023-02-06T02:19:08.040Z,91.47
2023-02-06T02:21:40.791Z,92.14
2023-02-06T02:24:17.837Z,93.03
2023-02-06T02:27:05.823Z,93.09
2023-02-06T02:29:49.329Z,92.66
2023-02-06T02:32:34.360Z,93.40
2023-02-06T02:35:34.701Z,93.89
2023-02-06T02:38:14.454Z,93.13
2023-02-06T02:40:53.890Z,92.93
2023-02-06T02:43:42.786Z,93.03
2023-02-06T02:46:26.279Z,93.72
2023-02-06T02:49:24.189Z,94.75
2023-02-06T02:51:52.233Z,95.44
2023-02-06T02:54:21.400Z,94.98
2023-02-06T02:56:48.926Z,95.29
2023-02-06T02:59:23.958Z,95.70
2023-02-06T03:01:59.443Z,96.36
2023-02-06T03:04:50.879Z,96.47
2023-02-06T03:07:55.681Z,96.91
2023-02-06T03:10:28.867Z,97.10
2023-02-06T03:13:21.857Z,97.02
2023-02-06T03:16:02.034Z,97.17
2023-02-06T03:18:41.559Z,96.09
2023-02-06T03:21:13.949Z,95.03
2023-02-06T03:23:45.332Z,94.56
2023-02-06T03:26:23.183Z,94.29
2023-02-06T03:28:55.534Z,94.73
2023-02-06T03:31:32.573Z,94.51
2023-02-06T03:34:30.843Z,93.77
2023-02-06T03:36:58.152Z,93.54
2023-02-06T03:39:26.081Z,93.66
2023-02-06T03:41:58.340Z,93.23
2023-02-06T03:44:31.859Z,92.29
2023-02-06T03:47:03.591Z,92.12
2023-02-06T03:49:40.138Z,91.32
2023-02-06T03:52:12.868Z,91.03
2023-02-06T03:54:49.770Z,90.16
2023-02-06T03:57:19.675Z,89.24
2023-02-06T03:59:47.325Z,89.07
2023-02-06T04:02:17.992Z,89.17
2023-02-06T04:04:46.166Z,88.28
2023-02-06T04:07:38.997Z,86.68
2023-02-06T04:10:06.544Z,86.67
2023-02-06T04:12:33.719Z,87.00
2023-02-06T04:15:01.333Z,87.41
2023-02-06T04:17:49.670Z,87.85
2023-02-06T04:20:21.014Z,87.81
2023-02-06T04:22:48.180Z,86.84
2023-02-06T04:25:15.691Z,86.27
2023-02-06T04:27:42.798Z,85.84
2023-02-06T04:30:10.976Z,85.08
2023-02-06T04:32:38.477Z,83.95
2023-02-06T04:35:06.234Z,83.81
2023-02-06T04:37:33.609Z,84.23
2023-02-06T04:40:00.833Z,84.17
2023-02-06T04:42:28.256Z,84.44
2023-02-06T04:44:55.362Z,85.09
2023-02-06T04:47:22.772Z,85.76
2023-02-06T04:49:50.227Z,86.57
2023-02-06T04:52:18.700Z,87.03
2023-02-06T04:54:46.184Z,87.20
2023-02-06T04:57:13.656Z,87.61
2023-02-06T04:59:41.084Z,87.49
2023-02-06T05:02:08.615Z,87.24
2023-02-06T05:04:39.193Z,87.29
2023-02-06T05:07:06.872Z,87.60
2023-02-06T05:09:33.965Z,86.50
2023-02-06T05:12:01.573Z,85.90
2023-02-06T05:14:29.924Z,84.69
2023-02-06T05:16:57.399Z,84.95
2023-02-06T05:19:26.947Z,84.96
2023-02-06T05:21:56.377Z,85.41
2023-02-06T05:24:24.967Z,86.14
2023-02-06T05:26:52.307Z,86.36
2023-02-06T05:29:19.280Z,86.22
2023-02-06T05:31:47.722Z,86.45
2023-02-06T05:34:15.212Z,86.95
2023-02-06T05:36:43.746Z,87.36
2023-02-06T05:39:12.195Z,87.56
2023-02-06T05:41:40.772Z,87.86
2023-02-06T05:44:08.269Z,87.65
2023-02-06T05:46:35.584Z,86.66
2023-02-06T05:49:03.117Z,85.58
2023-02-06T05:51:30.571Z,85.07
2023-02-06T05:53:57.552Z,84.70
2023-02-06T05:56:24.931Z,85.00
2023-02-06T05:58:58.170Z,85.64
2023-02-06T06:01:26.636Z,85.60
2023-02-06T06:03:53.975Z,85.92
2023-02-06T06:06:22.537Z,85.96
2023-02-06T06:08:49.830Z,86.05
2023-02-06T06:11:17.739Z,85.75
2023-02-06T06:13:44.865Z,85.60
2023-02-06T06:16:19.493Z,85.61
2023-02-06T06:18:47.849Z,85.44
2023-02-06T06:21:16.467Z,85.49
2023-02-06T06:23:43.933Z,85.76
2023-02-06T06:26:17.580Z,86.04
2023-02-06T06:28:45.968Z,86.10
2023-02-06T06:31:13.792Z,86.26
2023-02-06T06:33:43.455Z,86.69
2023-02-06T06:36:14.569Z,86.95
2023-02-06T06:38:43.894Z,86.15
2023-02-06T06:41:11.466Z,85.87
2023-02-06T06:43:39.740Z,85.84
2023-02-06T06:46:07.899Z,86.24
2023-02-06T06:48:38.472Z,85.79
2023-02-06T06:51:06.571Z,84.68
2023-02-06T06:53:40.334Z,84.08
2023-02-06T06:56:12.183Z,83.64
2023-02-06T06:58:40.451Z,83.45
2023-02-06T07:01:09.029Z,82.45
2023-02-06T07:03:36.970Z,82.84
2023-02-06T07:06:05.562Z,82.44
2023-02-06T07:08:32.896Z,81.90
2023-02-06T07:10:59.991Z,81.66
2023-02-06T07:13:27.259Z,81.46
2023-02-06T07:15:54.750Z,81.63
2023-02-06T07:18:22.756Z,81.76
2023-02-06T07:20:51.772Z,81.81
2023-02-06T07:23:19.226Z,82.28
2023-02-06T07:25:46.697Z,82.21
2023-02-06T07:28:13.750Z,82.63
2023-02-06T07:30:41.328Z,83.00
2023-02-06T07:33:08.800Z,83.26
2023-02-06T07:35:36.164Z,83.02
2023-02-06T07:38:03.597Z,82.74
2023-02-06T07:40:44.036Z,82.42
2023-02-06T07:43:13.611Z,81.98
2023-02-06T07:45:41.637Z,80.11
2023-02-06T07:48:09.210Z,78.56
2023-02-06T07:50:36.559Z,77.93
2023-02-06T07:53:03.635Z,78.01
2023-02-06T07:55:30.995Z,77.72
2023-02-06T07:57:58.416Z,76.50
2023-02-06T08:00:25.526Z,75.06
2023-02-06T08:02:52.829Z,75.24
2023-02-06T08:05:19.793Z,74.75
2023-02-06T08:07:47.322Z,74.51
2023-02-06T08:10:14.663Z,74.11
2023-02-06T08:12:41.757Z,72.73
2023-02-06T08:15:09.519Z,71.02
2023-02-06T08:17:36.635Z,69.64
2023-02-06T08:20:04.002Z,68.96
2023-02-06T08:22:31.214Z,69.26
2023-02-06T08:24:59.473Z,69.32
2023-02-06T08:27:27.521Z,68.42
2023-02-06T08:29:58.217Z,67.66
2023-02-06T08:32:29.294Z,66.64
2023-02-06T08:34:56.377Z,66.56
2023-02-06T08:37:24.645Z,65.59
2023-02-06T08:39:57.958Z,64.77
2023-02-06T08:42:24.863Z,64.56
2023-02-06T08:44:53.954Z,64.44
2023-02-06T08:47:21.068Z,62.96
2023-02-06T08:49:51.073Z,63.89
2023-02-06T08:52:20.427Z,64.90
2023-02-06T08:54:49.887Z,64.66
2023-02-06T08:57:16.972Z,64.00
2023-02-06T08:59:45.337Z,62.87
2023-02-06T09:02:12.479Z,63.16
2023-02-06T09:04:39.703Z,63.03
2023-02-06T09:07:06.936Z,62.92
2023-02-06T09:09:35.099Z,62.03
2023-02-06T09:12:04.174Z,61.13
2023-02-06T09:14:32.369Z,61.80
2023-02-06T09:16:59.651Z,60.63
2023-02-06T09:19:28.389Z,60.69
2023-02-06T09:21:55.764Z,60.62
2023-02-06T09:24:23.048Z,60.26
2023-02-06T09:27:00.273Z,59.87
2023-02-06T09:29:33.256Z,59.29
2023-02-06T09:32:01.193Z,58.71
2023-02-06T09:34:29.262Z,58.50
2023-02-06T09:36:58.028Z,58.54
2023-02-06T09:39:26.016Z,57.75
2023-02-06T09:42:22.606Z,57.94
2023-02-06T09:44:58.905Z,56.93
2023-02-06T09:47:32.659Z,55.69
2023-02-06T09:50:10.380Z,54.78
2023-02-06T09:52:59.135Z,55.01
2023-02-06T09:55:38.086Z,54.40
2023-02-06T09:58:39.974Z,54.43
2023-02-06T10:01:34.702Z,54.51
2023-02-06T10:04:16.654Z,54.75
2023-02-06T10:06:51.911Z,54.59
2023-02-06T10:09:35.723Z,54.05
2023-02-06T10:12:12.103Z,53.85
2023-02-06T10:14:49.177Z,52.82
2023-02-06T10:17:22.794Z,51.96
2023-02-06T10:20:03.535Z,52.16
2023-02-06T10:22:50.595Z,52.35
2023-02-06T10:25:32.704Z,51.05
2023-02-06T10:28:03.314Z,51.18
2023-02-06T10:31:18.636Z,51.55
2023-02-06T10:34:00.178Z,50.87
2023-02-06T10:37:06.614Z,49.59
2023-02-06T10:39:55.068Z,48.13
2023-02-06T10:42:30.336Z,47.34
2023-02-06T10:45:20.430Z,46.35
2023-02-06T10:48:31.996Z,47.00
2023-02-06T10:51:03.657Z,46.58
2023-02-06T10:53:42.749Z,46.96
2023-02-06T10:56:15.683Z,47.74
2023-02-06T10:59:00.303Z,47.25
2023-02-06T11:01:32.792Z,46.15
2023-02-06T11:04:15.919Z,43.23
2023-02-06T11:06:43.396Z,40.68
2023-02-06T11:09:10.842Z,40.18
2023-02-06T11:11:46.638Z,40.29
2023-02-06T11:14:20.764Z,42.96
2023-02-06T11:16:48.270Z,42.90
2023-02-06T11:19:42.226Z,41.80
2023-02-06T11:22:28.630Z,40.75
2023-02-06T11:25:08.125Z,39.28
2023-02-06T11:27:36.564Z,37.89
2023-02-06T11:30:10.585Z,36.54
2023-02-06T11:32:52.834Z,36.09
2023-02-06T11:35:40.340Z,35.68
2023-02-06T11:38:19.033Z,34.48
2023-02-06T11:41:07.088Z,35.70
2023-02-06T11:43:43.098Z,34.78
2023-02-06T11:46:25.730Z,35.41
2023-02-06T11:48:55.871Z,34.91
2023-02-06T11:51:24.733Z,34.62
2023-02-06T11:54:22.759Z,34.23
2023-02-06T11:57:23.598Z,35.26
2023-02-06T12:00:00.081Z,36.77
2023-02-06T12:02:36.292Z,35.93
2023-02-06T12:05:14.498Z,35.20
2023-02-06T12:08:05.814Z,34.41
2023-02-06T12:10:36.195Z,33.87
2023-02-06T12:13:34.097Z,33.09
2023-02-06T12:16:08.059Z,32.92
2023-02-06T12:18:42.917Z,32.19
2023-02-06T12:21:38.634Z,32.79
2023-02-06T12:24:48.169Z,32.46
2023-02-06T12:27:25.963Z,32.66
2023-02-06T12:33:37.877Z,33.65
2023-02-06T12:36:16.985Z,33.38
2023-02-06T12:38:49.336Z,32.75
2023-02-06T12:41:37.864Z,32.80
2023-02-06T12:44:28.808Z,33.84
2023-02-06T12:47:41.566Z,34.00
2023-02-06T12:50:25.186Z,34.07
2023-02-06T12:53:18.696Z,34.02
2023-02-06T12:55:57.166Z,35.99
2023-02-06T12:58:30.576Z,35.45
2023-02-06T13:04:49.785Z,35.47
2023-02-06T13:07:58.716Z,35.71
2023-02-06T13:10:29.369Z,35.75
2023-02-06T13:12:59.542Z,35.71
2023-02-06T13:15:32.389Z,35.69
2023-02-06T13:18:00.719Z,35.66
2023-02-06T13:20:28.679Z,36.54
2023-02-06T13:23:23.943Z,37.66
2023-02-06T13:25:52.390Z,39.63
2023-02-06T13:28:23.610Z,40.29
2023-02-06T13:31:02.811Z,41.33
2023-02-06T13:34:00.579Z,42.32
2023-02-06T13:36:43.407Z,43.01
2023-02-06T13:39:15.065Z,43.79
2023-02-06T13:41:45.113Z,43.96
2023-02-06T13:44:16.982Z,42.81
2023-02-06T13:46:50.472Z,41.06
2023-02-06T13:49:23.674Z,39.46
2023-02-06T13:52:07.064Z,38.10
2023-02-06T13:54:37.073Z,36.62
2023-02-06T13:57:41.228Z,36.24
2023-02-06T14:00:32.069Z,35.25
2023-02-06T14:03:31.763Z,34.53
2023-02-06T14:06:16.753Z,34.41
2023-02-06T14:09:09.039Z,34.27
2023-02-06T14:12:04.912Z,33.83
2023-02-06T14:15:06.023Z,33.31
2023-02-06T14:17:58.209Z,33.51
2023-02-06T14:20:44.404Z,33.44
2023-02-06T14:23:17.462Z,33.76
2023-02-06T14:26:23.650Z,35.04
2023-02-06T14:29:24.225Z,35.11
2023-02-06T14:32:09.467Z,35.06
2023-02-06T14:34:55.638Z,35.02
2023-02-06T14:37:50.776Z,34.78
2023-02-06T14:40:23.299Z,34.47
2023-02-06T14:42:53.728Z,33.99
2023-02-06T14:45:38.514Z,34.05
2023-02-06T14:48:31.388Z,34.44
2023-02-06T14:50:59.829Z,35.25
2023-02-06T14:53:35.568Z,35.46
2023-02-06T14:56:16.423Z,36.10
2023-02-06T14:58:46.704Z,36.59
2023-02-06T15:01:18.838Z,36.42
2023-02-06T15:03:48.678Z,37.21
2023-02-06T15:06:38.626Z,37.71
2023-02-06T15:09:08.525Z,38.39
2023-02-06T15:11:39.333Z,39.00
2023-02-06T15:14:23.359Z,39.41
2023-02-06T15:16:52.189Z,39.84
2023-02-06T15:19:27.045Z,40.53
2023-02-06T15:22:12.470Z,41.52
2023-02-06T15:25:07.692Z,42.22
2023-02-06T15:27:37.277Z,42.59
2023-02-06T15:30:26.208Z,43.22
2023-02-06T15:32:56.432Z,43.67
2023-02-06T15:35:25.838Z,44.22
2023-02-06T15:37:55.018Z,44.94
2023-02-06T15:40:25.658Z,45.36
2023-02-06T15:43:17.856Z,46.14
2023-02-06T15:45:48.639Z,46.83
2023-02-06T15:48:50.190Z,47.75
2023-02-06T15:51:38.449Z,48.33
2023-02-06T15:54:09.518Z,48.69
2023-02-06T15:56:41.457Z,49.51
2023-02-06T15:59:23.187Z,50.70
2023-02-06T16:01:51.898Z,51.53
2023-02-06T16:04:30.952Z,51.58
2023-02-06T16:07:19.615Z,51.68
2023-02-06T16:09:59.824Z,52.75
2023-02-06T16:12:44.941Z,53.18
2023-02-06T16:15:37.815Z,53.41
2023-02-06T16:18:33.763Z,54.38
2023-02-06T16:21:23.183Z,55.10
2023-02-06T16:24:04.145Z,55.84
2023-02-06T16:26:53.012Z,56.49
2023-02-06T16:29:26.160Z,56.99
2023-02-06T16:32:02.736Z,57.06
2023-02-06T16:34:48.400Z,57.19
2023-02-06T16:37:18.409Z,57.55
2023-02-06T16:39:46.965Z,57.86
2023-02-06T16:42:18.832Z,58.45
2023-02-06T16:44:50.030Z,58.57
2023-02-06T16:47:21.345Z,59.18
2023-02-06T16:50:01.119Z,59.44
2023-02-06T16:52:31.903Z,60.63
2023-02-06T16:55:01.193Z,61.92
2023-02-06T16:57:42.079Z,63.17
2023-02-06T17:00:29.506Z,63.84
2023-02-06T17:03:00.567Z,64.88
2023-02-06T17:05:31.759Z,65.75
2023-02-06T17:07:59.306Z,65.32
2023-02-06T17:10:27.752Z,64.96
2023-02-06T17:12:55.624Z,65.06
2023-02-06T17:15:23.417Z,65.43
2023-02-06T17:17:56.789Z,65.84
2023-02-06T17:20:35.207Z,66.34
2023-02-06T17:23:03.422Z,67.12
2023-02-06T17:25:31.498Z,67.00
2023-02-06T17:27:59.300Z,66.92
2023-02-06T17:30:28.233Z,67.33
2023-02-06T17:32:57.132Z,67.89
2023-02-06T17:35:24.814Z,68.17
2023-02-06T17:37:53.240Z,68.12
2023-02-06T17:40:24.634Z,68.66
2023-02-06T17:42:53.309Z,70.47
2023-02-06T17:45:21.510Z,72.26
2023-02-06T17:47:55.022Z,73.62
2023-02-06T17:50:24.840Z,74.44
2023-02-06T17:52:56.354Z,74.36
2023-02-06T17:55:24.637Z,75.53
2023-02-06T17:57:55.382Z,77.49
2023-02-06T18:00:24.589Z,77.57
2023-02-06T18:02:54.332Z,78.01
2023-02-06T18:05:24.872Z,78.14
2023-02-06T18:07:54.364Z,78.80
2023-02-06T18:10:25.139Z,78.86
2023-02-06T18:12:54.692Z,78.91
2023-02-06T18:15:22.632Z,78.16
2023-02-06T18:17:58.605Z,77.36
2023-02-06T18:20:27.444Z,76.94
2023-02-06T18:22:56.116Z,77.09
2023-02-06T18:25:25.430Z,78.10
2023-02-06T18:27:54.145Z,78.89
2023-02-06T18:30:22.330Z,79.36
2023-02-06T18:32:55.622Z,78.54
2023-02-06T18:35:24.789Z,79.28
2023-02-06T18:37:52.713Z,78.94
2023-02-06T18:40:23.133Z,78.97
2023-02-06T18:42:56.933Z,79.23
2023-02-06T18:45:32.012Z,80.04
2023-02-06T18:48:09.374Z,80.65
2023-02-06T18:50:43.470Z,80.28
2023-02-06T18:53:12.179Z,80.06
2023-02-06T18:55:47.020Z,80.23
2023-02-06T18:58:15.054Z,80.62
2023-02-06T19:00:44.123Z,82.01
2023-02-06T19:03:12.432Z,83.04
2023-02-06T19:05:40.060Z,84.38
2023-02-06T19:08:08.189Z,85.27
2023-02-06T19:10:37.783Z,85.92
2023-02-06T19:13:06.763Z,85.65
2023-02-06T19:15:38.764Z,84.71
2023-02-06T19:18:08.654Z,84.10
2023-02-06T19:20:43.972Z,83.42
2023-02-06T19:23:23.834Z,84.17
2023-02-06T19:25:51.674Z,84.42
2023-02-06T19:28:19.941Z,84.42
2023-02-06T19:30:51.134Z,84.01
2023-02-06T19:33:19.306Z,84.22
2023-02-06T19:35:47.455Z,85.06
2023-02-06T19:38:16.944Z,85.25
2023-02-06T19:40:47.613Z,85.90
2023-02-06T19:43:17.940Z,86.64
2023-02-06T19:45:48.838Z,88.20
2023-02-06T19:48:17.903Z,89.24
2023-02-06T19:50:45.701Z,90.38
2023-02-06T19:53:16.785Z,90.90
2023-02-06T19:55:49.542Z,90.62
2023-02-06T19:58:17.578Z,90.25
2023-02-06T20:00:55.305Z,90.14
2023-02-06T20:03:24.640Z,90.64
2023-02-06T20:05:52.817Z,90.93
2023-02-06T20:08:20.939Z,90.67
2023-02-06T20:10:49.555Z,90.89
2023-02-06T20:13:17.637Z,90.88
2023-02-06T20:15:45.958Z,90.14
2023-02-06T20:18:13.874Z,89.27
2023-02-06T20:20:42.365Z,88.93
2023-02-06T20:23:12.475Z,88.79
2023-02-06T20:25:42.980Z,89.50
2023-02-06T20:28:11.007Z,90.26
2023-02-06T20:30:39.121Z,90.91
2023-02-06T20:33:08.073Z,90.16
2023-02-06T20:35:45.361Z,89.74
2023-02-06T20:38:15.002Z,90.28
2023-02-06T20:40:50.233Z,90.88
2023-02-06T20:43:18.311Z,91.59
2023-02-06T20:45:46.607Z,92.88
2023-02-06T20:48:14.721Z,93.59
2023-02-06T20:50:48.408Z,92.94
2023-02-06T20:53:16.030Z,91.71
2023-02-06T20:55:47.629Z,91.31
2023-02-06T20:58:15.430Z,91.11
2023-02-06T21:00:43.483Z,90.99
2023-02-06T21:03:11.600Z,91.10
2023-02-06T21:05:41.098Z,91.19
2023-02-06T21:08:10.687Z,91.73
2023-02-06T21:10:39.363Z,91.58
2023-02-06T21:13:06.598Z,91.69
2023-02-06T21:15:36.188Z,92.06
2023-02-06T21:18:04.649Z,92.12
2023-02-06T21:20:32.090Z,92.19
2023-02-06T21:22:59.536Z,92.40
2023-02-06T21:25:39.288Z,93.15
2023-02-06T21:28:06.598Z,93.88
2023-02-06T21:30:35.728Z,94.93
2023-02-06T21:33:03.151Z,94.85
2023-02-06T21:35:33.183Z,94.58
2023-02-06T21:38:09.220Z,94.96
2023-02-06T21:40:37.624Z,95.42
2023-02-06T21:43:05.194Z,95.14
2023-02-06T21:45:32.670Z,94.70
2023-02-06T21:48:00.541Z,94.94
2023-02-06T21:50:28.136Z,95.45
2023-02-06T21:52:55.427Z,95.99
2023-02-06T21:55:23.018Z,96.43
2023-02-06T21:57:56.618Z,96.17
2023-02-06T22:00:26.125Z,95.33
2023-02-06T22:02:53.648Z,95.20
2023-02-06T22:05:21.173Z,95.15
2023-02-06T22:07:48.490Z,95.33
2023-02-06T22:10:18.094Z,95.63
2023-02-06T22:12:49.415Z,96.13
2023-02-06T22:15:17.108Z,95.90
2023-02-06T22:17:45.504Z,95.27
2023-02-06T22:20:16.405Z,95.33
2023-02-06T22:22:44.024Z,95.07
2023-02-06T22:25:12.029Z,94.84
2023-02-06T22:27:40.390Z,94.88
2023-02-06T22:30:09.688Z,94.77
2023-02-06T22:32:38.527Z,94.78
2023-02-06T22:35:06.861Z,95.00
2023-02-06T22:37:40.688Z,95.27
2023-02-06T22:40:09.379Z,95.99
2023-02-06T22:42:36.903Z,95.43
2023-02-06T22:45:04.622Z,95.25
2023-02-06T22:47:33.309Z,95.46
2023-02-06T22:50:00.790Z,95.88
2023-02-06T22:52:47.037Z,95.92
2023-02-06T22:55:14.186Z,96.58
2023-02-06T22:57:41.579Z,97.13
2023-02-06T23:00:11.894Z,97.68
2023-02-06T23:02:39.548Z,98.42
2023-02-06T23:05:07.131Z,98.17
2023-02-06T23:07:37.102Z,98.04
2023-02-06T23:10:04.573Z,98.27
2023-02-06T23:12:32.006Z,98.60
2023-02-06T23:14:59.491Z,97.78
2023-02-06T23:17:26.908Z,97.10
2023-02-06T23:19:54.485Z,96.88
2023-02-06T23:22:22.799Z,96.63
2023-02-06T23:24:51.927Z,97.01
2023-02-06T23:27:20.048Z,96.87
2023-02-06T23:29:47.446Z,96.87
2023-02-06T23:32:14.681Z,97.20
2023-02-06T23:34:43.300Z,96.94
2023-02-06T23:37:12.801Z,96.27
2023-02-06T23:39:40.296Z,96.17
2023-02-06T23:42:08.671Z,95.94
2023-02-06T23:44:36.080Z,96.43
2023-02-06T23:47:03.621Z,96.61
2023-02-06T23:49:30.971Z,97.31
2023-02-06T23:51:58.088Z,97.29
2023-02-06T23:54:28.516Z,96.66
2023-02-06T23:56:55.964Z,96.60
2023-02-06T23:59:23.451Z,97.09
